createdAt,value
2017-03-13T00:00:05.988Z,0
2017-03-13T00:01:06.516Z,0
2017-03-13T00:02:06.561Z,0
2017-03-13T00:03:06.170Z,0
2017-03-13T00:04:05.803Z,0
2017-03-13T00:05:06.486Z,0
2017-03-13T00:06:05.876Z,0
2017-03-13T00:07:06.305Z,0
2017-03-13T00:08:05.514Z,0
2017-03-13T00:09:06.754Z,0
2017-03-13T00:10:06.995Z,0
2017-03-13T00:11:06.369Z,0
2017-03-13T00:12:06.391Z,0
2017-03-13T00:13:06.457Z,0
2017-03-13T00:14:06.863Z,0
2017-03-13T00:15:07.136Z,0
2017-03-13T00:16:06.543Z,0
2017-03-13T00:17:05.768Z,0
2017-03-13T00:18:06.596Z,0
2017-03-13T00:19:06.610Z,0
2017-03-13T00:20:06.885Z,0
2017-03-13T00:21:07.058Z,0
2017-03-13T00:22:06.723Z,0
2017-03-13T00:23:07.113Z,0
2017-03-13T00:24:07.137Z,0
2017-03-13T00:25:07.042Z,0
2017-03-13T00:26:07.203Z,0
2017-03-13T00:27:06.840Z,0
2017-03-13T00:28:06.865Z,0
2017-03-13T00:29:06.902Z,0
2017-03-13T00:30:06.537Z,0
2017-03-13T00:31:07.252Z,0
2017-03-13T00:32:06.979Z,0
2017-03-13T00:33:07.409Z,0
2017-03-13T00:34:07.478Z,0
2017-03-13T00:35:07.455Z,0
2017-03-13T00:36:07.322Z,0
2017-03-13T00:37:07.511Z,0
2017-03-13T00:38:07.140Z,0
2017-03-13T00:39:07.621Z,0
2017-03-13T00:40:07.592Z,0
2017-03-13T00:41:07.874Z,0
2017-03-13T00:42:07.640Z,0
2017-03-13T00:43:06.888Z,0
2017-03-13T00:44:07.313Z,0
2017-03-13T00:45:07.722Z,0
2017-03-13T00:46:07.594Z,0
2017-03-13T00:47:07.779Z,0
2017-03-13T00:48:07.446Z,0
2017-03-13T00:49:07.453Z,0
2017-03-13T00:50:07.884Z,0
2017-03-13T00:51:08.157Z,0
2017-03-13T00:52:07.130Z,0
2017-03-13T00:53:07.151Z,0
2017-03-13T00:54:07.576Z,0
2017-03-13T00:55:07.213Z,0
2017-03-13T00:56:08.272Z,0
2017-03-13T00:57:07.694Z,0
2017-03-13T00:58:07.701Z,0
2017-03-13T00:59:07.715Z,0
2017-03-13T01:00:07.779Z,0
2017-03-13T01:01:08.025Z,0
2017-03-13T01:02:08.214Z,0
2017-03-13T01:03:07.434Z,0
2017-03-13T01:04:07.860Z,0
2017-03-13T01:05:08.333Z,0
2017-03-13T01:06:08.166Z,0
2017-03-13T01:07:07.962Z,0
2017-03-13T01:08:07.958Z,0
2017-03-13T01:09:07.216Z,0
2017-03-13T01:10:08.041Z,0
2017-03-13T01:11:08.332Z,0
2017-03-13T01:12:08.078Z,0
2017-03-13T01:13:08.114Z,0
2017-03-13T01:14:08.539Z,0
2017-03-13T01:15:08.559Z,0
2017-03-13T01:16:08.845Z,0
2017-03-13T01:17:08.642Z,0
2017-03-13T01:18:08.246Z,0
2017-03-13T01:19:07.927Z,0
2017-03-13T01:20:08.296Z,0
2017-03-13T01:21:08.583Z,0
2017-03-13T01:22:08.357Z,0
2017-03-13T01:23:08.410Z,0
2017-03-13T01:24:08.850Z,0
2017-03-13T01:25:08.483Z,0
2017-03-13T01:26:09.112Z,0
2017-03-13T01:27:08.880Z,0
2017-03-13T01:28:08.923Z,0
2017-03-13T01:29:08.962Z,0
2017-03-13T01:30:08.582Z,0
2017-03-13T01:31:09.255Z,0
2017-03-13T01:32:09.024Z,0
2017-03-13T01:33:09.058Z,0
2017-03-13T01:34:08.303Z,0
2017-03-13T01:35:08.310Z,0
2017-03-13T01:36:08.618Z,0
2017-03-13T01:37:08.786Z,0
2017-03-13T01:38:09.202Z,0
2017-03-13T01:39:09.218Z,0
2017-03-13T01:40:08.478Z,0
2017-03-13T01:41:09.146Z,0
2017-03-13T01:42:09.786Z,0
2017-03-13T01:43:09.352Z,0
2017-03-13T01:44:09.346Z,0
2017-03-13T01:45:09.047Z,0
2017-03-13T01:46:09.680Z,0
2017-03-13T01:47:08.705Z,0
2017-03-13T01:48:09.105Z,0
2017-03-13T01:49:09.502Z,0
2017-03-13T01:50:09.150Z,0
2017-03-13T01:51:09.803Z,0
2017-03-13T01:52:09.595Z,0
2017-03-13T01:53:09.617Z,0
2017-03-13T01:54:09.641Z,0
2017-03-13T01:55:09.254Z,0
2017-03-13T01:56:09.947Z,0
2017-03-13T01:57:09.332Z,0
2017-03-13T01:58:08.558Z,0
2017-03-13T01:59:08.197Z,0
2017-03-13T02:00:09.010Z,0
2017-03-13T02:01:08.901Z,0
2017-03-13T02:02:09.456Z,0
2017-03-13T02:03:08.714Z,0
2017-03-13T02:04:09.927Z,0
2017-03-13T02:05:09.942Z,0
2017-03-13T02:06:10.206Z,0
2017-03-13T02:07:09.615Z,0
2017-03-13T02:08:10.027Z,0
2017-03-13T02:09:09.681Z,0
2017-03-13T02:10:09.669Z,0
2017-03-13T02:11:09.711Z,0
2017-03-13T02:12:09.572Z,0
2017-03-13T02:13:09.763Z,0
2017-03-13T02:14:10.184Z,0
2017-03-13T02:15:10.205Z,0
2017-03-13T02:16:10.238Z,0
2017-03-13T02:17:10.128Z,0
2017-03-13T02:18:10.315Z,0
2017-03-13T02:19:10.327Z,0
2017-03-13T02:20:09.549Z,0
2017-03-13T02:21:10.389Z,0
2017-03-13T02:22:10.266Z,0
2017-03-13T02:23:10.447Z,0
2017-03-13T02:24:10.456Z,0
2017-03-13T02:25:10.077Z,0
2017-03-13T02:26:10.534Z,0
2017-03-13T02:27:10.802Z,0
2017-03-13T02:28:10.595Z,0
2017-03-13T02:29:10.607Z,0
2017-03-13T02:30:10.208Z,0
2017-03-13T02:31:10.273Z,0
2017-03-13T02:32:10.934Z,0
2017-03-13T02:33:10.314Z,0
2017-03-13T02:34:09.944Z,0
2017-03-13T02:35:10.358Z,0
2017-03-13T02:36:10.029Z,0
2017-03-13T02:37:10.693Z,0
2017-03-13T02:38:10.466Z,0
2017-03-13T02:39:10.874Z,0
2017-03-13T02:40:10.903Z,0
2017-03-13T02:41:10.916Z,0
2017-03-13T02:42:11.209Z,0
2017-03-13T02:43:10.186Z,0
2017-03-13T02:44:11.010Z,0
2017-03-13T02:45:10.648Z,0
2017-03-13T02:46:10.673Z,0
2017-03-13T02:47:10.970Z,0
2017-03-13T02:48:10.713Z,0
2017-03-13T02:49:09.959Z,0
2017-03-13T02:50:10.384Z,0
2017-03-13T02:51:11.208Z,0
2017-03-13T02:52:11.457Z,0
2017-03-13T02:53:10.865Z,0
2017-03-13T02:54:10.881Z,0
2017-03-13T02:55:10.931Z,0
2017-03-13T02:56:10.140Z,0
2017-03-13T02:57:10.453Z,0
2017-03-13T02:58:11.381Z,0
2017-03-13T02:59:11.005Z,0
2017-03-13T03:00:10.658Z,0
2017-03-13T03:01:11.460Z,0
2017-03-13T03:02:11.744Z,0
2017-03-13T03:03:11.529Z,0
2017-03-13T03:04:11.554Z,0
2017-03-13T03:05:11.190Z,0
2017-03-13T03:06:11.623Z,0
2017-03-13T03:07:11.092Z,0
2017-03-13T03:08:10.861Z,0
2017-03-13T03:09:10.897Z,0
2017-03-13T03:10:10.934Z,0
2017-03-13T03:11:11.355Z,0
2017-03-13T03:12:11.267Z,0
2017-03-13T03:13:11.789Z,0
2017-03-13T03:14:11.426Z,0
2017-03-13T03:15:11.086Z,0
2017-03-13T03:16:11.894Z,0
2017-03-13T03:17:11.372Z,0
2017-03-13T03:18:11.532Z,0
2017-03-13T03:19:11.572Z,0
2017-03-13T03:20:11.997Z,0
2017-03-13T03:21:11.631Z,0
2017-03-13T03:22:12.311Z,0
2017-03-13T03:23:12.067Z,0
2017-03-13T03:24:12.102Z,0
2017-03-13T03:25:11.726Z,0
2017-03-13T03:26:12.187Z,0
2017-03-13T03:27:11.639Z,0
2017-03-13T03:28:12.227Z,0
2017-03-13T03:29:11.831Z,0
2017-03-13T03:30:11.472Z,0
2017-03-13T03:31:11.893Z,0
2017-03-13T03:32:12.563Z,0
2017-03-13T03:33:11.971Z,0
2017-03-13T03:34:11.593Z,0
2017-03-13T03:35:12.462Z,0
2017-03-13T03:36:12.030Z,0
2017-03-13T03:37:12.294Z,0
2017-03-13T03:38:12.075Z,0
2017-03-13T03:39:12.100Z,0
2017-03-13T03:40:12.156Z,0
2017-03-13T03:41:12.565Z,0
2017-03-13T03:42:12.038Z,0
2017-03-13T03:43:12.607Z,0
2017-03-13T03:44:12.662Z,0
2017-03-13T03:45:12.684Z,0
2017-03-13T03:46:12.297Z,0
2017-03-13T03:47:12.185Z,0
2017-03-13T03:48:12.334Z,0
2017-03-13T03:49:12.823Z,0
2017-03-13T03:50:12.816Z,0
2017-03-13T03:51:12.829Z,0
2017-03-13T03:52:12.710Z,0
2017-03-13T03:53:12.902Z,0
2017-03-13T03:54:12.503Z,0
2017-03-13T03:55:12.940Z,0
2017-03-13T03:56:12.569Z,0
2017-03-13T03:57:12.857Z,0
2017-03-13T03:58:12.227Z,0
2017-03-13T03:59:12.669Z,0
2017-03-13T04:00:12.296Z,0
2017-03-13T04:01:13.080Z,0
2017-03-13T04:02:12.340Z,0
2017-03-13T04:03:13.410Z,0
2017-03-13T04:04:12.783Z,0
2017-03-13T04:05:12.839Z,0
2017-03-13T04:06:12.860Z,0
2017-03-13T04:07:12.873Z,0
2017-03-13T04:08:13.158Z,0
2017-03-13T04:09:13.322Z,0
2017-03-13T04:10:12.561Z,0
2017-03-13T04:11:12.986Z,0
2017-03-13T04:12:13.012Z,0
2017-03-13T04:13:13.277Z,0
2017-03-13T04:14:12.673Z,0
2017-03-13T04:15:13.079Z,0
2017-03-13T04:16:12.723Z,0
2017-03-13T04:17:13.532Z,0
2017-03-13T04:18:13.429Z,0
2017-03-13T04:19:12.390Z,0
2017-03-13T04:20:13.251Z,0
2017-03-13T04:21:13.227Z,0
2017-03-13T04:22:13.272Z,0
2017-03-13T04:23:13.572Z,0
2017-03-13T04:24:13.308Z,0
2017-03-13T04:25:13.766Z,0
2017-03-13T04:26:13.791Z,0
2017-03-13T04:27:13.832Z,0
2017-03-13T04:28:13.280Z,0
2017-03-13T04:29:13.896Z,0
2017-03-13T04:30:12.718Z,0
2017-03-13T04:31:13.122Z,0
2017-03-13T04:32:13.540Z,0
2017-03-13T04:33:13.837Z,0
2017-03-13T04:34:13.609Z,0
2017-03-13T04:35:13.249Z,0
2017-03-13T04:36:14.029Z,0
2017-03-13T04:37:12.867Z,0
2017-03-13T04:38:13.979Z,0
2017-03-13T04:39:13.748Z,0
2017-03-13T04:40:13.762Z,0
2017-03-13T04:41:13.765Z,0
2017-03-13T04:42:13.840Z,0
2017-03-13T04:43:14.091Z,0
2017-03-13T04:44:13.871Z,0
2017-03-13T04:45:13.901Z,0
2017-03-13T04:46:14.318Z,0
2017-03-13T04:47:13.554Z,0
2017-03-13T04:48:14.637Z,0
2017-03-13T04:49:14.388Z,0
2017-03-13T04:50:14.044Z,0
2017-03-13T04:51:14.058Z,0
2017-03-13T04:52:14.105Z,0
2017-03-13T04:53:13.990Z,0
2017-03-13T04:54:13.756Z,0
2017-03-13T04:55:14.161Z,0
2017-03-13T04:56:14.589Z,0
2017-03-13T04:57:14.224Z,0
2017-03-13T04:58:14.914Z,0
2017-03-13T04:59:14.275Z,0
2017-03-13T05:00:14.724Z,0
2017-03-13T05:01:14.337Z,0
2017-03-13T05:02:14.346Z,0
2017-03-13T05:03:14.630Z,0
2017-03-13T05:04:14.418Z,0
2017-03-13T05:05:14.432Z,0
2017-03-13T05:06:13.672Z,0
2017-03-13T05:07:14.894Z,0
2017-03-13T05:08:14.430Z,0
2017-03-13T05:09:13.737Z,0
2017-03-13T05:10:14.187Z,0
2017-03-13T05:11:14.992Z,0
2017-03-13T05:12:14.617Z,0
2017-03-13T05:13:15.314Z,0
2017-03-13T05:14:14.679Z,0
2017-03-13T05:15:15.099Z,0
2017-03-13T05:16:15.111Z,0
2017-03-13T05:17:14.368Z,0
2017-03-13T05:18:15.049Z,0
2017-03-13T05:19:14.822Z,0
2017-03-13T05:20:15.226Z,0
2017-03-13T05:21:14.887Z,0
2017-03-13T05:22:15.305Z,0
2017-03-13T05:23:14.789Z,0
2017-03-13T05:24:15.350Z,0
2017-03-13T05:25:14.983Z,0
2017-03-13T05:26:15.055Z,0
2017-03-13T05:27:15.032Z,0
2017-03-13T05:28:14.921Z,0
2017-03-13T05:29:15.086Z,0
2017-03-13T05:30:15.102Z,0
2017-03-13T05:31:14.743Z,0
2017-03-13T05:32:15.567Z,0
2017-03-13T05:33:15.850Z,0
2017-03-13T05:34:14.834Z,0
2017-03-13T05:35:15.274Z,0
2017-03-13T05:36:15.276Z,0
2017-03-13T05:37:15.303Z,0
2017-03-13T05:38:15.572Z,0
2017-03-13T05:39:15.349Z,0
2017-03-13T05:40:15.785Z,0
2017-03-13T05:41:15.023Z,0
2017-03-13T05:42:15.810Z,0
2017-03-13T05:43:15.716Z,0
2017-03-13T05:44:15.501Z,0
2017-03-13T05:45:15.903Z,0
2017-03-13T05:46:15.942Z,0
2017-03-13T05:47:15.543Z,0
2017-03-13T05:48:16.255Z,0
2017-03-13T05:49:15.221Z,0
2017-03-13T05:50:15.653Z,0
2017-03-13T05:51:15.706Z,0
2017-03-13T05:52:16.102Z,0
2017-03-13T05:53:16.366Z,0
2017-03-13T05:54:15.740Z,0
2017-03-13T05:55:15.802Z,0
2017-03-13T05:56:15.793Z,0
2017-03-13T05:57:16.246Z,0
2017-03-13T05:58:16.515Z,0
2017-03-13T05:59:15.499Z,0
2017-03-13T06:00:15.901Z,0
2017-03-13T06:01:15.538Z,0
2017-03-13T06:02:15.984Z,0
2017-03-13T06:03:15.603Z,0
2017-03-13T06:04:15.488Z,0
2017-03-13T06:05:14.873Z,0
2017-03-13T06:06:15.698Z,0
2017-03-13T06:07:15.317Z,0
2017-03-13T06:08:16.523Z,0
2017-03-13T06:09:16.423Z,0
2017-03-13T06:10:16.579Z,0
2017-03-13T06:11:16.221Z,0
2017-03-13T06:12:15.851Z,0
2017-03-13T06:13:16.260Z,0
2017-03-13T06:14:16.550Z,0
2017-03-13T06:15:16.320Z,0
2017-03-13T06:16:15.961Z,0
2017-03-13T06:17:15.986Z,0
2017-03-13T06:18:16.803Z,0
2017-03-13T06:19:16.666Z,0
2017-03-13T06:20:16.491Z,0
2017-03-13T06:21:16.929Z,0
2017-03-13T06:22:16.517Z,5
2017-03-13T06:23:16.946Z,5
2017-03-13T06:24:16.811Z,5
2017-03-13T06:25:16.595Z,5
2017-03-13T06:26:16.617Z,5
2017-03-13T06:27:17.081Z,5
2017-03-13T06:28:17.077Z,5
2017-03-13T06:29:16.955Z,5
2017-03-13T06:30:16.724Z,5
2017-03-13T06:31:15.969Z,5
2017-03-13T06:32:16.370Z,5
2017-03-13T06:33:17.218Z,5
2017-03-13T06:34:17.087Z,5
2017-03-13T06:35:17.259Z,5
2017-03-13T06:36:16.884Z,5
2017-03-13T06:37:17.308Z,5
2017-03-13T06:38:16.957Z,5
2017-03-13T06:39:17.611Z,5
2017-03-13T06:40:17.001Z,5
2017-03-13T06:41:17.043Z,5
2017-03-13T06:42:17.052Z,5
2017-03-13T06:43:17.488Z,5
2017-03-13T06:44:16.562Z,5
2017-03-13T06:45:17.146Z,5
2017-03-13T06:46:16.761Z,5
2017-03-13T06:47:17.580Z,5
2017-03-13T06:48:17.613Z,5
2017-03-13T06:49:17.485Z,5
2017-03-13T06:50:17.662Z,5
2017-03-13T06:51:17.700Z,5
2017-03-13T06:52:17.329Z,5
2017-03-13T06:53:17.741Z,10
2017-03-13T06:54:18.054Z,10
2017-03-13T06:55:17.798Z,10
2017-03-13T06:56:17.437Z,10
2017-03-13T06:57:17.061Z,10
2017-03-13T06:58:17.082Z,10
2017-03-13T06:59:16.961Z,10
2017-03-13T07:00:17.137Z,10
2017-03-13T07:01:17.576Z,10
2017-03-13T07:02:17.640Z,10
2017-03-13T07:03:17.640Z,10
2017-03-13T07:04:17.499Z,10
2017-03-13T07:05:18.080Z,10
2017-03-13T07:06:17.754Z,10
2017-03-13T07:07:18.229Z,10
2017-03-13T07:08:17.384Z,10
2017-03-13T07:09:17.239Z,15
2017-03-13T07:10:17.810Z,15
2017-03-13T07:11:17.842Z,15
2017-03-13T07:12:17.079Z,20
2017-03-13T07:13:17.732Z,35
2017-03-13T07:14:18.568Z,45
2017-03-13T07:15:17.960Z,55
2017-03-13T07:16:18.373Z,55
2017-03-13T07:17:18.383Z,60
2017-03-13T07:18:18.457Z,60
2017-03-13T07:19:18.724Z,65
2017-03-13T07:20:17.733Z,70
2017-03-13T07:21:18.125Z,80
2017-03-13T07:22:17.761Z,85
2017-03-13T07:23:17.771Z,85
2017-03-13T07:24:17.408Z,90
2017-03-13T07:25:18.489Z,90
2017-03-13T07:26:18.481Z,95
2017-03-13T07:27:18.294Z,95
2017-03-13T07:28:21.859Z,95
2017-03-13T07:29:18.344Z,95
2017-03-13T07:30:19.029Z,95
2017-03-13T07:31:18.814Z,95
2017-03-13T07:32:18.430Z,90
2017-03-13T07:33:18.106Z,85
2017-03-13T07:34:18.908Z,80
2017-03-13T07:35:18.372Z,80
2017-03-13T07:36:18.930Z,75
2017-03-13T07:37:17.794Z,75
2017-03-13T07:38:18.619Z,75
2017-03-13T07:39:19.048Z,70
2017-03-13T07:40:19.305Z,70
2017-03-13T07:41:19.128Z,70
2017-03-13T07:42:19.123Z,65
2017-03-13T07:43:19.150Z,60
2017-03-13T07:44:18.794Z,55
2017-03-13T07:45:19.444Z,55
2017-03-13T07:46:18.829Z,50
2017-03-13T07:47:19.262Z,50
2017-03-13T07:48:19.278Z,50
2017-03-13T07:49:18.516Z,45
2017-03-13T07:50:19.200Z,45
2017-03-13T07:51:19.369Z,45
2017-03-13T07:52:18.617Z,45
2017-03-13T07:53:19.434Z,40
2017-03-13T07:54:19.452Z,40
2017-03-13T07:55:18.979Z,40
2017-03-13T07:56:19.512Z,40
2017-03-13T07:57:19.145Z,40
2017-03-13T07:58:18.786Z,35
2017-03-13T07:59:19.607Z,35
2017-03-13T08:00:19.491Z,35
2017-03-13T08:01:19.256Z,35
2017-03-13T08:02:19.689Z,35
2017-03-13T08:03:19.322Z,35
2017-03-13T08:04:19.326Z,35
2017-03-13T08:05:19.636Z,30
2017-03-13T08:06:19.805Z,30
2017-03-13T08:07:19.836Z,30
2017-03-13T08:08:19.873Z,30
2017-03-13T08:09:19.902Z,30
2017-03-13T08:10:20.165Z,30
2017-03-13T08:11:19.968Z,30
2017-03-13T08:12:19.964Z,30
2017-03-13T08:13:20.007Z,30
2017-03-13T08:14:19.262Z,30
2017-03-13T08:15:20.319Z,30
2017-03-13T08:16:20.079Z,25
2017-03-13T08:17:19.736Z,25
2017-03-13T08:18:20.153Z,25
2017-03-13T08:19:20.185Z,25
2017-03-13T08:20:20.437Z,25
2017-03-13T08:21:19.852Z,25
2017-03-13T08:22:19.863Z,25
2017-03-13T08:23:20.278Z,25
2017-03-13T08:24:19.949Z,25
2017-03-13T08:25:20.206Z,25
2017-03-13T08:26:19.611Z,25
2017-03-13T08:27:19.608Z,25
2017-03-13T08:28:18.853Z,25
2017-03-13T08:29:20.046Z,25
2017-03-13T08:30:20.750Z,25
2017-03-13T08:31:20.534Z,25
2017-03-13T08:32:20.155Z,25
2017-03-13T08:33:19.772Z,25
2017-03-13T08:34:19.792Z,25
2017-03-13T08:35:20.106Z,30
2017-03-13T08:36:19.847Z,30
2017-03-13T08:37:20.286Z,30
2017-03-13T08:38:20.308Z,30
2017-03-13T08:39:19.557Z,30
2017-03-13T08:40:20.609Z,30
2017-03-13T08:41:20.814Z,35
2017-03-13T08:42:20.819Z,35
2017-03-13T08:43:20.835Z,40
2017-03-13T08:44:19.700Z,45
2017-03-13T08:45:20.745Z,50
2017-03-13T08:46:19.730Z,50
2017-03-13T08:47:20.150Z,50
2017-03-13T08:48:20.983Z,55
2017-03-13T08:49:20.212Z,55
2017-03-13T08:50:20.488Z,50
2017-03-13T08:51:20.658Z,65
2017-03-13T08:52:20.718Z,65
2017-03-13T08:53:20.727Z,65
2017-03-13T08:54:20.776Z,65
2017-03-13T08:55:21.415Z,70
2017-03-13T08:56:20.844Z,70
2017-03-13T08:57:20.446Z,75
2017-03-13T08:58:20.875Z,70
2017-03-13T08:59:20.516Z,75
2017-03-13T09:00:21.592Z,75
2017-03-13T09:01:21.366Z,75
2017-03-13T09:02:20.982Z,75
2017-03-13T09:03:20.614Z,70
2017-03-13T09:04:21.076Z,70
2017-03-13T09:05:21.315Z,65
2017-03-13T09:06:21.097Z,65
2017-03-13T09:07:20.317Z,60
2017-03-13T09:08:21.171Z,60
2017-03-13T09:09:21.587Z,60
2017-03-13T09:10:21.479Z,55
2017-03-13T09:11:21.649Z,50
2017-03-13T09:12:21.281Z,50
2017-03-13T09:13:20.912Z,45
2017-03-13T09:14:21.751Z,45
2017-03-13T09:15:20.560Z,45
2017-03-13T09:16:21.660Z,45
2017-03-13T09:17:21.801Z,45
2017-03-13T09:18:21.042Z,45
2017-03-13T09:19:21.486Z,45
2017-03-13T09:20:21.087Z,45
2017-03-13T09:21:22.175Z,45
2017-03-13T09:22:20.791Z,45
2017-03-13T09:23:20.385Z,45
2017-03-13T09:24:21.614Z,45
2017-03-13T09:25:21.259Z,45
2017-03-13T09:26:21.124Z,45
2017-03-13T09:27:22.089Z,45
2017-03-13T09:28:21.737Z,45
2017-03-13T09:29:20.954Z,45
2017-03-13T09:30:21.392Z,45
2017-03-13T09:31:22.047Z,45
2017-03-13T09:32:21.444Z,45
2017-03-13T09:33:21.893Z,40
2017-03-13T09:34:21.921Z,40
2017-03-13T09:35:21.914Z,40
2017-03-13T09:36:21.411Z,40
2017-03-13T09:37:21.168Z,40
2017-03-13T09:38:21.233Z,35
2017-03-13T09:39:21.258Z,35
2017-03-13T09:40:22.065Z,35
2017-03-13T09:41:22.353Z,35
2017-03-13T09:42:22.120Z,35
2017-03-13T09:43:21.368Z,35
2017-03-13T09:44:22.177Z,35
2017-03-13T09:45:22.601Z,35
2017-03-13T09:46:22.492Z,35
2017-03-13T09:47:21.463Z,35
2017-03-13T09:48:21.531Z,35
2017-03-13T09:49:21.512Z,35
2017-03-13T09:50:22.346Z,35
2017-03-13T09:51:23.010Z,35
2017-03-13T09:52:22.003Z,35
2017-03-13T09:53:22.864Z,35
2017-03-13T09:54:22.450Z,35
2017-03-13T09:55:22.104Z,35
2017-03-13T09:56:22.798Z,40
2017-03-13T09:57:21.763Z,40
2017-03-13T09:58:22.611Z,35
2017-03-13T09:59:23.012Z,35
2017-03-13T10:00:23.025Z,35
2017-03-13T10:01:22.137Z,30
2017-03-13T10:02:22.303Z,35
2017-03-13T10:03:22.320Z,40
2017-03-13T10:04:22.364Z,40
2017-03-13T10:05:22.777Z,40
2017-03-13T10:06:23.469Z,40
2017-03-13T10:07:23.223Z,45
2017-03-13T10:08:22.867Z,45
2017-03-13T10:09:22.099Z,45
2017-03-13T10:10:22.928Z,40
2017-03-13T10:11:22.540Z,40
2017-03-13T10:12:22.841Z,45
2017-03-13T10:13:23.019Z,45
2017-03-13T10:14:22.220Z,45
2017-03-13T10:15:22.654Z,45
2017-03-13T10:16:23.093Z,45
2017-03-13T10:17:23.378Z,45
2017-03-13T10:18:23.562Z,45
2017-03-13T10:19:22.374Z,45
2017-03-13T10:20:22.824Z,40
2017-03-13T10:21:23.636Z,45
2017-03-13T10:22:23.901Z,45
2017-03-13T10:23:23.286Z,50
2017-03-13T10:24:23.335Z,50
2017-03-13T10:25:23.348Z,50
2017-03-13T10:26:23.767Z,45
2017-03-13T10:27:23.242Z,40
2017-03-13T10:28:23.838Z,45
2017-03-13T10:29:23.503Z,45
2017-03-13T10:30:23.482Z,50
2017-03-13T10:31:23.925Z,45
2017-03-13T10:32:23.793Z,45
2017-03-13T10:33:23.565Z,45
2017-03-13T10:34:23.232Z,45
2017-03-13T10:35:23.615Z,45
2017-03-13T10:36:23.268Z,45
2017-03-13T10:37:24.337Z,45
2017-03-13T10:38:24.117Z,45
2017-03-13T10:39:23.342Z,45
2017-03-13T10:40:23.780Z,45
2017-03-13T10:41:23.003Z,45
2017-03-13T10:42:23.277Z,45
2017-03-13T10:43:24.255Z,45
2017-03-13T10:44:24.278Z,45
2017-03-13T10:45:23.927Z,50
2017-03-13T10:46:24.320Z,50
2017-03-13T10:47:24.624Z,50
2017-03-13T10:48:24.425Z,50
2017-03-13T10:49:24.055Z,50
2017-03-13T10:50:23.669Z,50
2017-03-13T10:51:23.700Z,50
2017-03-13T10:52:24.364Z,50
2017-03-13T10:53:23.360Z,55
2017-03-13T10:54:24.192Z,55
2017-03-13T10:55:23.419Z,55
2017-03-13T10:56:24.247Z,55
2017-03-13T10:57:24.894Z,55
2017-03-13T10:58:24.717Z,60
2017-03-13T10:59:24.730Z,60
2017-03-13T11:00:24.342Z,60
2017-03-13T11:01:24.764Z,60
2017-03-13T11:02:25.091Z,65
2017-03-13T11:03:24.431Z,65
2017-03-13T11:04:24.913Z,65
2017-03-13T11:05:24.477Z,65
2017-03-13T11:06:24.511Z,65
2017-03-13T11:07:25.204Z,60
2017-03-13T11:08:24.576Z,65
2017-03-13T11:09:25.004Z,65
2017-03-13T11:10:25.030Z,65
2017-03-13T11:11:24.650Z,60
2017-03-13T11:12:25.331Z,60
2017-03-13T11:13:25.127Z,60
2017-03-13T11:14:24.736Z,60
2017-03-13T11:15:24.401Z,60
2017-03-13T11:16:24.798Z,65
2017-03-13T11:17:25.479Z,70
2017-03-13T11:18:24.467Z,70
2017-03-13T11:19:25.285Z,75
2017-03-13T11:20:25.318Z,80
2017-03-13T11:21:25.329Z,85
2017-03-13T11:22:25.634Z,80
2017-03-13T11:23:25.415Z,80
2017-03-13T11:24:25.436Z,80
2017-03-13T11:25:25.455Z,85
2017-03-13T11:26:25.534Z,80
2017-03-13T11:27:25.796Z,95
2017-03-13T11:28:25.160Z,105
2017-03-13T11:29:25.220Z,100
2017-03-13T11:30:24.793Z,100
2017-03-13T11:31:25.261Z,105
2017-03-13T11:32:25.921Z,100
2017-03-13T11:33:25.695Z,100
2017-03-13T11:34:25.332Z,100
2017-03-13T11:35:25.748Z,95
2017-03-13T11:36:25.389Z,85
2017-03-13T11:37:25.702Z,85
2017-03-13T11:38:25.861Z,95
2017-03-13T11:39:25.874Z,110
2017-03-13T11:40:25.915Z,110
2017-03-13T11:41:25.528Z,110
2017-03-13T11:42:25.409Z,110
2017-03-13T11:43:25.595Z,110
2017-03-13T11:44:25.624Z,105
2017-03-13T11:45:25.272Z,100
2017-03-13T11:46:25.669Z,90
2017-03-13T11:47:25.980Z,110
2017-03-13T11:48:25.330Z,110
2017-03-13T11:49:25.755Z,100
2017-03-13T11:50:25.790Z,75
2017-03-13T11:51:25.831Z,75
2017-03-13T11:52:26.556Z,80
2017-03-13T11:53:26.288Z,85
2017-03-13T11:54:25.921Z,95
2017-03-13T11:55:25.959Z,105
2017-03-13T11:56:25.974Z,110
2017-03-13T11:57:26.266Z,95
2017-03-13T11:58:26.421Z,110
2017-03-13T11:59:26.048Z,130
2017-03-13T12:00:26.498Z,135
2017-03-13T12:01:26.198Z,145
2017-03-13T12:02:26.815Z,155
2017-03-13T12:03:26.184Z,185
2017-03-13T12:04:26.645Z,180
2017-03-13T12:05:25.829Z,160
2017-03-13T12:06:26.272Z,190
2017-03-13T12:07:26.543Z,220
2017-03-13T12:08:26.320Z,215
2017-03-13T12:09:26.742Z,195
2017-03-13T12:10:26.767Z,230
2017-03-13T12:11:26.827Z,215
2017-03-13T12:12:26.704Z,140
2017-03-13T12:13:26.876Z,190
2017-03-13T12:14:26.900Z,185
2017-03-13T12:15:26.930Z,230
2017-03-13T12:16:26.953Z,235
2017-03-13T12:17:26.848Z,215
2017-03-13T12:18:26.603Z,190
2017-03-13T12:19:26.259Z,190
2017-03-13T12:20:26.322Z,165
2017-03-13T12:21:27.109Z,160
2017-03-13T12:22:27.400Z,160
2017-03-13T12:23:27.172Z,125
2017-03-13T12:24:27.211Z,110
2017-03-13T12:25:26.860Z,105
2017-03-13T12:26:26.465Z,140
2017-03-13T12:27:26.518Z,130
2017-03-13T12:28:26.384Z,125
2017-03-13T12:29:27.396Z,140
2017-03-13T12:30:26.613Z,145
2017-03-13T12:31:27.053Z,160
2017-03-13T12:32:27.434Z,160
2017-03-13T12:33:27.336Z,165
2017-03-13T12:34:27.513Z,130
2017-03-13T12:35:27.152Z,105
2017-03-13T12:36:26.390Z,115
2017-03-13T12:37:27.603Z,135
2017-03-13T12:38:27.090Z,150
2017-03-13T12:39:27.284Z,130
2017-03-13T12:40:26.526Z,135
2017-03-13T12:41:27.754Z,150
2017-03-13T12:42:27.372Z,150
2017-03-13T12:43:27.267Z,150
2017-03-13T12:44:27.009Z,150
2017-03-13T12:45:27.062Z,145
2017-03-13T12:46:27.882Z,145
2017-03-13T12:47:27.933Z,145
2017-03-13T12:48:28.199Z,145
2017-03-13T12:49:27.594Z,145
2017-03-13T12:50:28.012Z,140
2017-03-13T12:51:27.668Z,140
2017-03-13T12:54:17.171Z,135
2017-03-13T12:54:27.564Z,135
2017-03-13T12:55:27.984Z,135
2017-03-13T12:56:27.633Z,135
2017-03-13T12:57:27.225Z,130
2017-03-13T12:58:27.655Z,130
2017-03-13T12:59:27.967Z,130
2017-03-13T13:00:28.107Z,130
2017-03-13T13:01:28.144Z,125
2017-03-13T13:02:28.167Z,125
2017-03-13T13:03:28.214Z,115
2017-03-13T13:04:28.113Z,110
2017-03-13T13:05:27.873Z,110
2017-03-13T13:06:28.321Z,100
2017-03-13T13:07:27.139Z,110
2017-03-13T13:08:27.951Z,110
2017-03-13T13:09:27.847Z,110
2017-03-13T13:10:28.415Z,110
2017-03-13T13:11:27.268Z,115
2017-03-13T13:12:27.689Z,110
2017-03-13T13:13:27.721Z,110
2017-03-13T13:14:28.014Z,105
2017-03-13T13:15:27.789Z,105
2017-03-13T13:16:27.431Z,105
2017-03-13T13:17:27.849Z,100
2017-03-13T13:18:28.686Z,95
2017-03-13T13:19:28.561Z,95
2017-03-13T13:20:27.947Z,100
2017-03-13T13:21:28.373Z,95
2017-03-13T13:22:28.008Z,90
2017-03-13T13:23:28.441Z,95
2017-03-13T13:24:28.326Z,95
2017-03-13T13:25:28.895Z,95
2017-03-13T13:26:28.932Z,95
2017-03-13T13:27:28.612Z,95
2017-03-13T13:28:27.816Z,95
2017-03-13T13:29:28.886Z,95
2017-03-13T13:30:28.662Z,95
2017-03-13T13:31:29.100Z,95
2017-03-13T13:32:29.104Z,95
2017-03-13T13:33:27.985Z,95
2017-03-13T13:34:28.642Z,85
2017-03-13T13:35:28.823Z,75
2017-03-13T13:36:28.855Z,90
2017-03-13T13:37:28.493Z,90
2017-03-13T13:38:28.125Z,90
2017-03-13T13:39:29.593Z,90
2017-03-13T13:40:28.607Z,90
2017-03-13T13:41:28.628Z,85
2017-03-13T13:42:28.657Z,85
2017-03-13T13:43:28.689Z,85
2017-03-13T13:44:28.966Z,85
2017-03-13T13:45:29.142Z,85
2017-03-13T13:46:28.803Z,90
2017-03-13T13:47:28.419Z,85
2017-03-13T13:48:29.629Z,85
2017-03-13T13:49:29.126Z,85
2017-03-13T13:50:29.305Z,85
2017-03-13T13:51:29.343Z,85
2017-03-13T13:52:28.967Z,80
2017-03-13T13:53:29.396Z,80
2017-03-13T13:54:29.681Z,80
2017-03-13T13:55:29.463Z,80
2017-03-13T13:56:28.711Z,80
2017-03-13T13:57:28.731Z,80
2017-03-13T13:58:29.560Z,85
2017-03-13T13:59:30.229Z,80
2017-03-13T14:00:29.233Z,80
2017-03-13T14:01:29.658Z,80
2017-03-13T14:02:30.071Z,80
2017-03-13T14:03:29.705Z,75
2017-03-13T14:04:30.027Z,75
2017-03-13T14:05:30.176Z,75
2017-03-13T14:06:30.206Z,75
2017-03-13T14:07:30.245Z,75
2017-03-13T14:08:30.270Z,75
2017-03-13T14:09:30.560Z,75
2017-03-13T14:10:29.573Z,70
2017-03-13T14:11:29.966Z,70
2017-03-13T14:12:29.998Z,70
2017-03-13T14:13:30.431Z,70
2017-03-13T14:14:29.936Z,70
2017-03-13T14:15:30.488Z,70
2017-03-13T14:16:30.536Z,70
2017-03-13T14:17:30.558Z,70
2017-03-13T14:18:30.609Z,70
2017-03-13T14:19:30.887Z,65
2017-03-13T14:20:30.658Z,65
2017-03-13T14:21:30.685Z,70
2017-03-13T14:22:30.322Z,65
2017-03-13T14:23:30.753Z,65
2017-03-13T14:24:30.667Z,65
2017-03-13T14:25:30.012Z,60
2017-03-13T14:26:30.443Z,60
2017-03-13T14:27:30.489Z,65